createdAt,value
2019-02-06T00:01:46.822Z,99.90
2019-02-06T00:04:15.641Z,99.90
2019-02-06T00:06:44.282Z,99.90
2019-02-06T00:09:13.646Z,99.90
2019-02-06T00:11:41.866Z,99.90
2019-02-06T00:14:09.977Z,99.90
2019-02-06T00:16:38.330Z,99.90
2019-02-06T00:19:06.924Z,99.90
2019-02-06T00:21:35.186Z,99.90
2019-02-06T00:24:03.601Z,99.90
2019-02-06T00:26:31.940Z,99.90
2019-02-06T00:29:00.459Z,99.90
2019-02-06T00:31:29.206Z,99.90
2019-02-06T00:33:57.303Z,99.90
2019-02-06T00:36:25.504Z,99.90
2019-02-06T00:38:53.763Z,99.90
2019-02-06T00:41:22.674Z,99.90
2019-02-06T00:43:50.765Z,99.90
2019-02-06T00:46:18.880Z,99.90
2019-02-06T00:48:47.081Z,99.90
2019-02-06T00:51:15.288Z,99.90
2019-02-06T00:53:43.629Z,99.90
2019-02-06T00:56:11.835Z,99.90
2019-02-06T00:58:40.585Z,99.90
2019-02-06T01:01:08.788Z,99.90
2019-02-06T01:03:37.550Z,99.90
2019-02-06T01:06:05.919Z,99.90
2019-02-06T01:08:34.131Z,99.90
2019-02-06T01:11:02.878Z,99.90
2019-02-06T01:13:30.991Z,99.90
2019-02-06T01:15:59.246Z,99.90
2019-02-06T01:18:27.650Z,99.90
2019-02-06T01:20:55.920Z,99.90
2019-02-06T01:23:24.482Z,99.90
2019-02-06T01:25:53.073Z,99.90
2019-02-06T01:28:21.737Z,99.90
2019-02-06T01:31:02.586Z,99.90
2019-02-06T01:33:30.738Z,99.90
2019-02-06T01:35:58.955Z,99.90
2019-02-06T01:38:27.107Z,99.90
2019-02-06T01:40:55.207Z,99.90
2019-02-06T01:43:23.461Z,99.90
2019-02-06T01:45:52.652Z,99.90
2019-02-06T01:48:20.747Z,99.90
2019-02-06T01:50:49.307Z,99.90
2019-02-06T01:53:17.398Z,99.90
2019-02-06T01:55:45.546Z,99.90
2019-02-06T01:58:13.651Z,99.90
2019-02-06T02:00:42.002Z,99.90
2019-02-06T02:03:10.198Z,99.90
2019-02-06T02:05:38.358Z,99.90
2019-02-06T02:08:06.683Z,99.90
2019-02-06T02:10:35.045Z,99.90
2019-02-06T02:13:03.249Z,99.90
2019-02-06T02:15:31.602Z,99.90
2019-02-06T02:18:00.240Z,99.90
2019-02-06T02:20:28.534Z,99.90
2019-02-06T02:22:56.797Z,99.90
2019-02-06T02:25:25.094Z,99.90
2019-02-06T02:27:53.400Z,99.90
2019-02-06T02:30:28.042Z,99.90
2019-02-06T02:32:56.444Z,99.90
2019-02-06T02:35:25.154Z,99.90
2019-02-06T02:37:53.970Z,99.90
2019-02-06T02:40:22.140Z,99.90
2019-02-06T02:42:50.352Z,99.90
2019-02-06T02:45:20.046Z,99.90
2019-02-06T02:47:48.867Z,99.90
2019-02-06T02:50:17.043Z,99.90
2019-02-06T02:52:45.143Z,99.90
2019-02-06T02:55:13.459Z,99.90
2019-02-06T02:57:41.829Z,99.90
2019-02-06T03:00:16.194Z,99.90
2019-02-06T03:03:04.854Z,99.90
2019-02-06T03:05:35.179Z,99.90
2019-02-06T03:08:04.332Z,99.90
2019-02-06T03:10:32.450Z,99.90
2019-02-06T03:13:01.588Z,99.90
2019-02-06T03:15:29.754Z,99.90
2019-02-06T03:17:57.949Z,99.90
2019-02-06T03:20:26.097Z,99.90
2019-02-06T03:22:54.438Z,99.90
2019-02-06T03:25:22.778Z,99.90
2019-02-06T03:27:50.940Z,99.90
2019-02-06T03:30:20.104Z,99.90
2019-02-06T03:32:48.374Z,99.90
2019-02-06T03:35:18.662Z,99.90
2019-02-06T03:37:47.286Z,99.90
2019-02-06T03:40:16.008Z,99.90
2019-02-06T03:42:44.864Z,99.90
2019-02-06T03:45:13.277Z,99.90
2019-02-06T03:47:41.438Z,99.90
2019-02-06T03:50:12.229Z,99.90
2019-02-06T03:52:40.787Z,99.90
2019-02-06T03:55:09.500Z,99.90
2019-02-06T03:57:37.721Z,99.90
2019-02-06T04:00:08.199Z,99.90
2019-02-06T04:02:36.607Z,99.90
2019-02-06T04:05:05.449Z,99.90
2019-02-06T04:07:33.762Z,99.90
2019-02-06T04:10:02.024Z,99.90
2019-02-06T04:12:30.477Z,99.90
2019-02-06T04:14:58.586Z,99.90
2019-02-06T04:17:26.750Z,99.90
2019-02-06T04:19:54.862Z,99.90
2019-02-06T04:22:23.018Z,99.90
2019-02-06T04:24:51.792Z,99.90
2019-02-06T04:27:20.533Z,99.90
2019-02-06T04:29:48.697Z,99.90
2019-02-06T04:32:16.979Z,99.90
2019-02-06T04:34:45.575Z,99.90
2019-02-06T04:37:14.082Z,99.90
2019-02-06T04:39:42.241Z,99.90
2019-02-06T04:42:10.714Z,99.90
2019-02-06T04:44:38.935Z,99.90
2019-02-06T04:47:07.043Z,99.90
2019-02-06T04:49:35.541Z,99.90
2019-02-06T04:52:04.574Z,99.90
2019-02-06T04:54:33.249Z,99.90
2019-02-06T04:57:01.746Z,99.90
2019-02-06T04:59:29.954Z,99.90
2019-02-06T05:01:58.217Z,99.90
2019-02-06T05:04:26.429Z,99.90
2019-02-06T05:06:55.051Z,99.90
2019-02-06T05:09:23.805Z,99.90
2019-02-06T05:11:51.914Z,99.90
2019-02-06T05:14:20.051Z,99.90
2019-02-06T05:16:48.138Z,99.90
2019-02-06T05:19:16.386Z,99.90
2019-02-06T05:21:44.531Z,99.90
2019-02-06T05:24:12.875Z,99.90
2019-02-06T05:26:41.082Z,99.90
2019-02-06T05:29:09.333Z,99.90
2019-02-06T05:31:37.521Z,99.90
2019-02-06T05:34:05.823Z,99.90
2019-02-06T05:36:34.146Z,99.90
2019-02-06T05:39:02.256Z,99.90
2019-02-06T05:41:30.554Z,99.90
2019-02-06T05:43:58.699Z,99.90
2019-02-06T05:46:27.002Z,99.90
2019-02-06T05:48:55.151Z,99.90
2019-02-06T05:51:23.239Z,99.90
2019-02-06T05:53:51.714Z,99.90
2019-02-06T05:56:19.869Z,99.90
2019-02-06T05:58:47.951Z,99.90
2019-02-06T06:01:17.998Z,99.90
2019-02-06T06:03:46.963Z,99.90
2019-02-06T06:06:15.170Z,99.90
2019-02-06T06:08:43.313Z,99.90
2019-02-06T06:11:11.879Z,99.90
2019-02-06T06:13:40.392Z,99.90
2019-02-06T06:16:08.528Z,99.90
2019-02-06T06:18:36.769Z,99.90
2019-02-06T06:21:05.549Z,99.90
2019-02-06T06:23:33.638Z,99.90
2019-02-06T06:26:02.326Z,99.90
2019-02-06T06:28:30.471Z,99.90
2019-02-06T06:30:58.661Z,99.90
2019-02-06T06:33:26.750Z,99.90
2019-02-06T06:35:55.066Z,99.90
2019-02-06T06:38:23.266Z,99.90
2019-02-06T06:40:51.475Z,99.90
2019-02-06T06:43:19.615Z,99.90
2019-02-06T06:45:47.706Z,99.90
2019-02-06T06:48:16.052Z,99.90
2019-02-06T06:50:44.639Z,99.90
2019-02-06T06:53:12.804Z,99.90
2019-02-06T06:55:41.465Z,99.90
2019-02-06T06:58:09.582Z,99.90
2019-02-06T07:00:37.841Z,99.90
2019-02-06T07:03:05.933Z,99.90
2019-02-06T07:05:34.533Z,99.90
2019-02-06T07:08:09.595Z,99.90
2019-02-06T07:10:33.287Z,99.90
2019-02-06T07:13:01.546Z,99.90
2019-02-06T07:15:31.773Z,99.90
2019-02-06T07:18:00.330Z,99.90
2019-02-06T07:20:28.725Z,99.90
2019-02-06T07:22:57.069Z,99.90
2019-02-06T07:25:25.271Z,99.90
2019-02-06T07:27:53.550Z,99.90
2019-02-06T07:30:24.238Z,99.90
2019-02-06T07:32:52.589Z,99.90
2019-02-06T07:35:20.845Z,99.90
2019-02-06T07:37:49.045Z,99.90
2019-02-06T07:40:18.742Z,99.90
2019-02-06T07:42:47.081Z,99.90
2019-02-06T07:45:16.074Z,99.90
2019-02-06T07:47:44.374Z,99.90
2019-02-06T07:50:15.830Z,99.90
2019-02-06T07:52:44.129Z,99.90
2019-02-06T07:55:13.021Z,99.90
2019-02-06T07:57:41.641Z,99.90
2019-02-06T08:00:09.941Z,99.90
2019-02-06T08:02:38.598Z,99.90
2019-02-06T08:05:08.966Z,99.90
2019-02-06T08:07:37.188Z,99.90
2019-02-06T08:10:07.825Z,99.90
2019-02-06T08:12:36.026Z,99.90
2019-02-06T08:15:06.222Z,99.90
2019-02-06T08:17:34.315Z,99.90
2019-02-06T08:20:02.881Z,99.90
2019-02-06T08:22:30.973Z,99.90
2019-02-06T08:24:59.662Z,99.90
2019-02-06T08:27:28.150Z,99.90
2019-02-06T08:29:56.390Z,99.90
2019-02-06T08:32:24.603Z,99.90
2019-02-06T08:34:54.021Z,99.90
2019-02-06T08:37:22.175Z,99.90
2019-02-06T08:39:50.408Z,99.90
2019-02-06T08:42:19.074Z,99.90
2019-02-06T08:44:51.089Z,99.90
2019-02-06T08:47:33.954Z,99.90
2019-02-06T08:50:02.415Z,99.90
2019-02-06T08:52:43.842Z,98.80
2019-02-06T08:55:14.874Z,96.10
2019-02-06T08:57:43.102Z,96.60
2019-02-06T09:00:15.215Z,96.10
2019-02-06T09:02:43.767Z,95.50
2019-02-06T09:05:12.510Z,94.90
2019-02-06T09:07:40.829Z,94.50
2019-02-06T09:10:13.403Z,94.50
2019-02-06T09:12:41.932Z,95.40
2019-02-06T09:15:10.685Z,94.70
2019-02-06T09:17:39.049Z,93.80
2019-02-06T09:20:10.278Z,93.50
2019-02-06T09:22:38.469Z,92.50
2019-02-06T09:25:07.534Z,92.00
2019-02-06T09:27:36.154Z,91.60
2019-02-06T09:30:05.999Z,91.00
2019-02-06T09:32:34.301Z,90.70
2019-02-06T09:35:03.499Z,90.40
2019-02-06T09:37:32.195Z,90.30
2019-02-06T09:40:01.006Z,90.00
2019-02-06T09:42:29.178Z,89.70
2019-02-06T09:44:58.577Z,90.00
2019-02-06T09:47:26.734Z,90.20
2019-02-06T09:49:54.937Z,88.50
2019-02-06T09:52:26.582Z,89.60
2019-02-06T09:54:53.220Z,88.50
2019-02-06T09:57:21.534Z,87.90
2019-02-06T09:59:49.638Z,88.80
2019-02-06T10:02:17.937Z,88.00
2019-02-06T10:04:46.259Z,87.40
2019-02-06T10:07:15.692Z,85.60
2019-02-06T10:09:44.302Z,83.80
2019-02-06T10:12:12.762Z,84.10
2019-02-06T10:14:40.981Z,83.00
2019-02-06T10:17:09.498Z,82.30
2019-02-06T10:19:37.707Z,82.90
2019-02-06T10:22:06.126Z,82.10
2019-02-06T10:24:34.794Z,81.70
2019-02-06T10:27:03.164Z,81.40
2019-02-06T10:29:32.326Z,81.40
2019-02-06T10:32:01.115Z,80.80
2019-02-06T10:34:29.317Z,80.20
2019-02-06T10:37:01.510Z,80.70
2019-02-06T10:39:34.733Z,80.60
2019-02-06T10:42:03.053Z,80.40
2019-02-06T10:44:31.822Z,79.70
2019-02-06T10:47:06.843Z,79.00
2019-02-06T10:49:39.665Z,79.60
2019-02-06T10:52:08.760Z,78.80
2019-02-06T10:54:37.175Z,78.50
2019-02-06T10:57:05.930Z,75.80
2019-02-06T10:59:34.970Z,76.80
2019-02-06T11:02:03.677Z,76.60
2019-02-06T11:04:31.954Z,75.00
2019-02-06T11:07:00.110Z,74.30
2019-02-06T11:09:28.333Z,73.10
2019-02-06T11:11:56.537Z,72.60
2019-02-06T11:14:25.312Z,71.60
2019-02-06T11:16:53.606Z,69.90
2019-02-06T11:19:21.773Z,71.20
2019-02-06T11:21:49.975Z,67.80
2019-02-06T11:24:18.130Z,67.30
2019-02-06T11:26:46.326Z,68.10
2019-02-06T11:29:14.479Z,67.10
2019-02-06T11:31:50.568Z,66.70
2019-02-06T11:34:19.138Z,66.60
2019-02-06T11:36:47.245Z,66.80
2019-02-06T11:39:21.987Z,65.70
2019-02-06T11:41:50.320Z,63.20
2019-02-06T11:44:18.930Z,63.70
2019-02-06T11:46:47.133Z,62.40
2019-02-06T11:49:16.463Z,60.50
2019-02-06T11:51:44.630Z,59.10
2019-02-06T11:54:13.127Z,58.70
2019-02-06T11:56:41.932Z,58.10
2019-02-06T11:59:10.142Z,58.30
2019-02-06T12:01:45.611Z,57.80
2019-02-06T12:04:14.279Z,58.00
2019-02-06T12:06:42.542Z,56.40
2019-02-06T12:09:13.519Z,55.60
2019-02-06T12:11:41.895Z,55.20
2019-02-06T12:14:10.195Z,54.80
2019-02-06T12:16:38.445Z,55.30
2019-02-06T12:19:06.774Z,53.90
2019-02-06T12:21:34.991Z,55.70
2019-02-06T12:24:03.911Z,55.20
2019-02-06T12:26:32.028Z,54.20
2019-02-06T12:29:00.300Z,54.80
2019-02-06T12:31:29.505Z,54.30
2019-02-06T12:33:58.223Z,54.00
2019-02-06T12:36:26.587Z,54.00
2019-02-06T12:38:54.766Z,54.90
2019-02-06T12:41:23.011Z,55.20
2019-02-06T12:43:51.342Z,54.00
2019-02-06T12:46:20.110Z,53.40
2019-02-06T12:48:48.398Z,52.90
2019-02-06T12:51:16.674Z,52.40
2019-02-06T12:53:44.880Z,53.40
2019-02-06T12:56:13.195Z,53.00
2019-02-06T12:58:41.466Z,52.00
2019-02-06T13:01:09.683Z,53.50
2019-02-06T13:03:37.790Z,53.20
2019-02-06T13:06:06.173Z,51.80
2019-02-06T13:08:34.290Z,51.10
2019-02-06T13:11:03.381Z,51.50
2019-02-06T13:13:31.746Z,52.00
2019-02-06T13:15:59.838Z,52.30
2019-02-06T13:18:27.952Z,51.30
2019-02-06T13:20:56.286Z,52.10
2019-02-06T13:23:25.070Z,50.90
2019-02-06T13:25:53.883Z,50.50
2019-02-06T13:28:22.783Z,50.00
2019-02-06T13:30:51.049Z,50.60
2019-02-06T13:33:19.541Z,50.50
2019-02-06T13:35:47.659Z,50.30
2019-02-06T13:38:16.283Z,50.60
2019-02-06T13:40:46.027Z,50.30
2019-02-06T13:43:14.466Z,51.60
2019-02-06T13:45:44.414Z,49.90
2019-02-06T13:48:12.990Z,51.30
2019-02-06T13:50:41.299Z,51.00
2019-02-06T13:53:10.172Z,51.30
2019-02-06T13:55:38.423Z,51.60
2019-02-06T13:58:07.193Z,51.50
2019-02-06T14:00:36.631Z,51.20
2019-02-06T14:03:05.711Z,50.10
2019-02-06T14:05:34.239Z,51.30
2019-02-06T14:08:07.976Z,50.70
2019-02-06T14:10:36.296Z,49.80
2019-02-06T14:13:05.110Z,49.80
2019-02-06T14:15:36.927Z,50.80
2019-02-06T14:18:05.455Z,50.20
2019-02-06T14:20:34.374Z,49.70
2019-02-06T14:23:21.606Z,49.70
2019-02-06T14:26:29.962Z,49.40
2019-02-06T14:29:34.495Z,48.80
2019-02-06T14:33:02.320Z,48.80
2019-02-06T14:36:12.050Z,49.70
2019-02-06T14:39:20.980Z,49.70
2019-02-06T14:42:19.443Z,50.20
2019-02-06T14:45:36.613Z,49.30
2019-02-06T14:48:17.745Z,49.40
2019-02-06T14:51:15.234Z,49.80
2019-02-06T14:53:55.767Z,50.40
2019-02-06T14:56:42.136Z,50.40
2019-02-06T14:59:48.976Z,50.40
2019-02-06T15:02:42.950Z,50.80
2019-02-06T15:05:47.272Z,50.60
2019-02-06T15:08:50.485Z,50.20
2019-02-06T15:12:03.147Z,50.30
2019-02-06T15:14:46.010Z,50.30
2019-02-06T15:17:58.922Z,51.40
2019-02-06T15:20:44.175Z,51.00
2019-02-06T15:23:38.934Z,51.20
2019-02-06T15:27:00.791Z,51.00
2019-02-06T15:30:09.313Z,50.90
2019-02-06T15:33:05.239Z,50.40
2019-02-06T15:36:22.156Z,50.90
2019-02-06T15:39:20.498Z,50.60
2019-02-06T15:42:29.424Z,50.40
2019-02-06T15:45:27.200Z,51.10
2019-02-06T15:48:10.968Z,51.30
2019-02-06T15:51:35.690Z,51.80
2019-02-06T15:54:57.369Z,51.70
2019-02-06T15:57:52.158Z,51.80
2019-02-06T16:01:04.393Z,51.50
2019-02-06T16:04:42.278Z,51.80
2019-02-06T16:07:48.240Z,52.30
2019-02-06T16:10:55.135Z,53.00
2019-02-06T16:14:01.459Z,53.30
2019-02-06T16:17:29.363Z,53.80
2019-02-06T16:20:42.215Z,53.90
2019-02-06T16:23:50.683Z,54.00
2019-02-06T16:26:54.873Z,54.30
2019-02-06T16:30:07.102Z,55.10
2019-02-06T16:32:54.719Z,55.50
2019-02-06T16:35:47.705Z,56.20
2019-02-06T16:38:31.797Z,56.50
2019-02-06T16:41:33.747Z,57.10
2019-02-06T16:44:33.864Z,57.50
2019-02-06T16:47:54.363Z,59.00
2019-02-06T16:51:07.067Z,58.90
2019-02-06T16:54:14.140Z,59.30
2019-02-06T16:57:07.834Z,60.10
2019-02-06T16:59:55.002Z,61.30
2019-02-06T17:03:14.594Z,61.90
2019-02-06T17:06:08.509Z,62.10
2019-02-06T17:09:08.711Z,62.70
2019-02-06T17:12:04.717Z,63.00
2019-02-06T17:15:14.266Z,63.70
2019-02-06T17:17:53.455Z,65.10
2019-02-06T17:20:45.304Z,65.60
2019-02-06T17:23:27.367Z,64.40
2019-02-06T17:26:43.555Z,64.50
2019-02-06T17:29:35.398Z,65.60
2019-02-06T17:32:52.634Z,69.10
2019-02-06T17:36:05.186Z,69.70
2019-02-06T17:39:11.438Z,69.70
2019-02-06T17:42:15.438Z,70.30
2019-02-06T17:45:20.263Z,72.00
2019-02-06T17:48:29.713Z,72.80
2019-02-06T17:51:51.415Z,72.80
2019-02-06T17:54:59.642Z,73.30
2019-02-06T17:57:27.359Z,74.80
2019-02-06T17:59:55.956Z,75.10
2019-02-06T18:02:24.097Z,75.70
2019-02-06T18:04:52.276Z,75.90
2019-02-06T18:07:20.374Z,76.60
2019-02-06T18:09:48.618Z,76.90
2019-02-06T18:12:26.385Z,77.80
2019-02-06T18:14:47.104Z,79.20
2019-02-06T18:17:15.502Z,78.90
2019-02-06T18:19:43.642Z,78.90
2019-02-06T18:22:11.869Z,79.00
2019-02-06T18:24:41.062Z,79.20
2019-02-06T18:27:10.824Z,79.60
2019-02-06T18:29:39.309Z,80.60
2019-02-06T18:32:07.598Z,81.10
2019-02-06T18:34:36.310Z,81.50
2019-02-06T18:37:04.745Z,81.70
2019-02-06T18:39:33.661Z,81.30
2019-02-06T18:42:01.874Z,80.60
2019-02-06T18:44:30.130Z,80.30
2019-02-06T18:46:59.965Z,80.60
2019-02-06T18:49:28.129Z,81.80
2019-02-06T18:51:56.439Z,82.40
2019-02-06T18:54:25.161Z,82.70
2019-02-06T18:56:53.617Z,82.80
2019-02-06T18:59:21.910Z,83.00
2019-02-06T19:01:50.162Z,83.60
2019-02-06T19:04:19.772Z,84.10
2019-02-06T19:06:48.176Z,84.60
2019-02-06T19:09:17.108Z,85.00
2019-02-06T19:11:47.361Z,85.70
2019-02-06T19:14:16.289Z,86.20
2019-02-06T19:16:44.658Z,86.10
2019-02-06T19:19:13.374Z,86.00
2019-02-06T19:21:41.516Z,86.30
2019-02-06T19:24:09.814Z,87.20
2019-02-06T19:26:37.975Z,87.90
2019-02-06T19:29:06.366Z,87.90
2019-02-06T19:31:35.074Z,87.50
2019-02-06T19:34:04.194Z,87.70
2019-02-06T19:36:33.980Z,88.00
2019-02-06T19:39:02.577Z,88.00
2019-02-06T19:41:31.187Z,88.10
2019-02-06T19:43:59.386Z,88.40
2019-02-06T19:46:27.573Z,89.40
2019-02-06T19:48:55.667Z,89.50
2019-02-06T19:51:24.763Z,89.50
2019-02-06T19:53:53.068Z,89.40
2019-02-06T19:56:21.320Z,88.50
2019-02-06T19:58:49.574Z,88.50
2019-02-06T20:01:17.939Z,88.60
2019-02-06T20:03:46.054Z,89.30
2019-02-06T20:06:39.313Z,90.10
2019-02-06T20:09:11.901Z,90.00
2019-02-06T20:11:40.261Z,90.10
2019-02-06T20:14:08.822Z,90.30
2019-02-06T20:16:37.103Z,90.50
2019-02-06T20:19:05.852Z,90.70
2019-02-06T20:21:34.110Z,90.80
2019-02-06T20:24:02.805Z,90.70
2019-02-06T20:26:31.975Z,90.60
2019-02-06T20:29:00.405Z,90.80
2019-02-06T20:31:28.962Z,91.00
2019-02-06T20:33:57.482Z,90.70
2019-02-06T20:36:25.713Z,90.60
2019-02-06T20:38:53.817Z,90.40
2019-02-06T20:41:22.330Z,90.50
2019-02-06T20:43:50.595Z,90.60
2019-02-06T20:46:19.341Z,90.90
2019-02-06T20:48:47.513Z,91.00
2019-02-06T20:51:15.626Z,91.60
2019-02-06T20:53:43.837Z,92.10
2019-02-06T20:56:13.187Z,92.30
2019-02-06T20:58:41.809Z,92.40
2019-02-06T21:01:10.116Z,92.70
2019-02-06T21:03:38.277Z,92.90
2019-02-06T21:06:06.572Z,93.20
2019-02-06T21:08:34.867Z,93.10
2019-02-06T21:11:02.961Z,92.80
2019-02-06T21:13:33.387Z,93.10
2019-02-06T21:16:01.726Z,93.30
2019-02-06T21:18:30.477Z,93.90
2019-02-06T21:20:58.566Z,94.70
2019-02-06T21:23:26.822Z,95.30
2019-02-06T21:25:55.569Z,95.60
2019-02-06T21:28:23.825Z,95.60
2019-02-06T21:30:52.127Z,95.70
2019-02-06T21:33:20.893Z,95.90
2019-02-06T21:35:49.050Z,96.10
2019-02-06T21:38:17.319Z,96.50
2019-02-06T21:40:45.794Z,97.30
2019-02-06T21:43:14.171Z,98.10
2019-02-06T21:45:43.523Z,98.50
2019-02-06T21:48:11.774Z,98.70
2019-02-06T21:50:41.095Z,99.00
2019-02-06T21:53:09.250Z,98.50
2019-02-06T21:55:37.366Z,98.00
2019-02-06T21:58:05.750Z,97.90
2019-02-06T22:00:36.818Z,97.70
2019-02-06T22:03:06.452Z,97.90
2019-02-06T22:05:35.273Z,98.00
2019-02-06T22:08:04.589Z,98.00
2019-02-06T22:10:33.372Z,98.00
2019-02-06T22:13:02.484Z,98.30
2019-02-06T22:15:30.940Z,98.60
2019-02-06T22:17:59.391Z,98.60
2019-02-06T22:20:28.584Z,98.50
2019-02-06T22:22:56.827Z,98.00
2019-02-06T22:25:25.244Z,97.80
2019-02-06T22:27:53.840Z,98.00
2019-02-06T22:30:24.394Z,98.20
2019-02-06T22:32:52.832Z,98.80
2019-02-06T22:35:21.905Z,98.50
2019-02-06T22:37:50.254Z,98.70
2019-02-06T22:40:20.083Z,98.60
2019-02-06T22:42:48.375Z,99.50
2019-02-06T22:45:18.534Z,99.90
2019-02-06T22:47:46.742Z,99.90
2019-02-06T22:50:16.616Z,99.90
2019-02-06T22:52:44.818Z,99.90
2019-02-06T22:55:13.454Z,99.90
2019-02-06T22:57:41.755Z,99.90
2019-02-06T23:00:28.241Z,99.90
2019-02-06T23:02:56.973Z,99.90
2019-02-06T23:05:25.245Z,99.90
2019-02-06T23:07:54.100Z,99.90
2019-02-06T23:10:22.351Z,99.90
2019-02-06T23:12:50.960Z,99.90
2019-02-06T23:15:19.696Z,99.90
2019-02-06T23:17:48.002Z,99.90
2019-02-06T23:20:16.475Z,99.90
2019-02-06T23:22:44.717Z,99.90
2019-02-06T23:25:13.042Z,99.90
2019-02-06T23:27:41.906Z,99.90
2019-02-06T23:30:10.639Z,99.90
2019-02-06T23:32:38.903Z,99.90
2019-02-06T23:35:07.809Z,99.90
2019-02-06T23:37:36.126Z,99.90
2019-02-06T23:40:06.505Z,99.90
2019-02-06T23:42:34.758Z,99.90
2019-02-06T23:45:03.287Z,99.90
2019-02-06T23:47:31.539Z,99.90
2019-02-06T23:49:59.942Z,99.90
2019-02-06T23:52:28.200Z,99.90
2019-02-06T23:54:56.315Z,99.90
2019-02-06T23:57:24.805Z,99.90
2019-02-06T23:59:52.891Z,99.90
